sensor_id;sensor_type;location;lat;lon;timestamp;P1;durP1;ratioP1;P2;durP2;ratioP2
51560;SDS011;37654;51.262;17.058;2023-08-20T00:01:39;17.23;;;13.57;;
51560;SDS011;37654;51.262;17.058;2023-08-20T00:04:04;13.60;;;11.88;;
51560;SDS011;37654;51.262;17.058;2023-08-20T00:06:30;17.58;;;11.55;;
51560;SDS011;37654;51.262;17.058;2023-08-20T00:08:55;15.30;;;11.88;;
51560;SDS011;37654;51.262;17.058;2023-08-20T00:11:21;15.03;;;11.23;;
51560;SDS011;37654;51.262;17.058;2023-08-20T00:13:46;15.65;;;12.05;;
51560;SDS011;37654;51.262;17.058;2023-08-20T00:16:11;15.27;;;11.70;;
51560;SDS011;37654;51.262;17.058;2023-08-20T00:18:37;15.43;;;11.93;;
51560;SDS011;37654;51.262;17.058;2023-08-20T00:21:03;17.73;;;11.68;;
51560;SDS011;37654;51.262;17.058;2023-08-20T00:23:29;16.98;;;11.90;;
51560;SDS011;37654;51.262;17.058;2023-08-20T00:25:55;21.75;;;12.90;;
51560;SDS011;37654;51.262;17.058;2023-08-20T00:28:20;17.88;;;12.23;;
51560;SDS011;37654;51.262;17.058;2023-08-20T00:30:46;16.70;;;11.65;;
51560;SDS011;37654;51.262;17.058;2023-08-20T00:33:11;15.48;;;12.25;;
51560;SDS011;37654;51.262;17.058;2023-08-20T00:35:36;13.77;;;12.00;;
51560;SDS011;37654;51.262;17.058;2023-08-20T00:38:02;14.77;;;11.17;;
51560;SDS011;37654;51.262;17.058;2023-08-20T00:40:27;15.13;;;11.20;;
51560;SDS011;37654;51.262;17.058;2023-08-20T00:42:53;15.68;;;13.18;;
51560;SDS011;37654;51.262;17.058;2023-08-20T00:45:18;17.63;;;14.20;;
51560;SDS011;37654;51.262;17.058;2023-08-20T00:47:43;19.90;;;14.27;;
51560;SDS011;37654;51.262;17.058;2023-08-20T00:50:09;18.27;;;14.25;;
51560;SDS011;37654;51.262;17.058;2023-08-20T00:52:35;21.02;;;15.02;;
51560;SDS011;37654;51.262;17.058;2023-08-20T00:55:06;18.73;;;15.25;;
51560;SDS011;37654;51.262;17.058;2023-08-20T00:57:32;21.85;;;15.02;;
51560;SDS011;37654;51.262;17.058;2023-08-20T00:59:58;19.27;;;15.52;;
51560;SDS011;37654;51.262;17.058;2023-08-20T01:02:23;19.33;;;14.63;;
51560;SDS011;37654;51.262;17.058;2023-08-20T01:04:49;18.85;;;14.02;;
51560;SDS011;37654;51.262;17.058;2023-08-20T01:07:18;19.40;;;15.10;;
51560;SDS011;37654;51.262;17.058;2023-08-20T01:12:14;18.83;;;15.50;;
51560;SDS011;37654;51.262;17.058;2023-08-20T01:14:41;19.35;;;14.32;;
51560;SDS011;37654;51.262;17.058;2023-08-20T01:17:06;20.63;;;14.67;;
51560;SDS011;37654;51.262;17.058;2023-08-20T01:19:32;20.10;;;14.70;;
51560;SDS011;37654;51.262;17.058;2023-08-20T01:27:08;22.85;;;15.90;;
51560;SDS011;37654;51.262;17.058;2023-08-20T01:29:36;18.23;;;15.25;;
51560;SDS011;37654;51.262;17.058;2023-08-20T01:32:01;19.52;;;15.00;;
51560;SDS011;37654;51.262;17.058;2023-08-20T01:34:27;20.92;;;15.05;;
51560;SDS011;37654;51.262;17.058;2023-08-20T01:36:53;20.33;;;15.70;;
51560;SDS011;37654;51.262;17.058;2023-08-20T01:39:18;22.40;;;15.73;;
51560;SDS011;37654;51.262;17.058;2023-08-20T01:41:44;25.57;;;15.93;;
51560;SDS011;37654;51.262;17.058;2023-08-20T01:44:09;26.13;;;16.75;;
51560;SDS011;37654;51.262;17.058;2023-08-20T01:46:34;19.43;;;15.70;;
51560;SDS011;37654;51.262;17.058;2023-08-20T01:49:00;20.53;;;16.10;;
51560;SDS011;37654;51.262;17.058;2023-08-20T01:51:25;21.00;;;16.07;;
51560;SDS011;37654;51.262;17.058;2023-08-20T01:53:50;21.73;;;16.58;;
51560;SDS011;37654;51.262;17.058;2023-08-20T01:56:16;21.92;;;15.15;;
51560;SDS011;37654;51.262;17.058;2023-08-20T01:58:41;20.58;;;15.75;;
51560;SDS011;37654;51.262;17.058;2023-08-20T02:01:07;19.20;;;15.13;;
51560;SDS011;37654;51.262;17.058;2023-08-20T02:03:32;22.35;;;15.23;;
51560;SDS011;37654;51.262;17.058;2023-08-20T02:05:57;20.63;;;15.67;;
51560;SDS011;37654;51.262;17.058;2023-08-20T02:08:23;19.33;;;14.82;;
51560;SDS011;37654;51.262;17.058;2023-08-20T02:10:48;17.65;;;14.18;;
51560;SDS011;37654;51.262;17.058;2023-08-20T02:13:13;21.70;;;14.30;;
51560;SDS011;37654;51.262;17.058;2023-08-20T02:15:38;17.13;;;13.00;;
51560;SDS011;37654;51.262;17.058;2023-08-20T02:18:04;20.20;;;14.38;;
51560;SDS011;37654;51.262;17.058;2023-08-20T02:20:29;19.17;;;13.13;;
51560;SDS011;37654;51.262;17.058;2023-08-20T02:22:55;16.10;;;13.23;;
51560;SDS011;37654;51.262;17.058;2023-08-20T02:25:20;17.08;;;13.73;;
51560;SDS011;37654;51.262;17.058;2023-08-20T02:27:45;16.60;;;13.07;;
51560;SDS011;37654;51.262;17.058;2023-08-20T02:30:11;16.33;;;12.03;;
51560;SDS011;37654;51.262;17.058;2023-08-20T02:32:38;18.05;;;13.23;;
51560;SDS011;37654;51.262;17.058;2023-08-20T02:35:04;21.58;;;13.45;;
51560;SDS011;37654;51.262;17.058;2023-08-20T02:37:30;16.35;;;13.43;;
51560;SDS011;37654;51.262;17.058;2023-08-20T02:39:56;17.60;;;13.80;;
51560;SDS011;37654;51.262;17.058;2023-08-20T02:42:21;17.92;;;13.38;;
51560;SDS011;37654;51.262;17.058;2023-08-20T02:44:46;17.27;;;12.13;;
51560;SDS011;37654;51.262;17.058;2023-08-20T02:47:12;15.20;;;12.50;;
51560;SDS011;37654;51.262;17.058;2023-08-20T02:49:37;19.10;;;12.67;;
51560;SDS011;37654;51.262;17.058;2023-08-20T02:52:02;17.52;;;12.60;;
51560;SDS011;37654;51.262;17.058;2023-08-20T02:54:28;20.40;;;13.40;;
51560;SDS011;37654;51.262;17.058;2023-08-20T02:56:54;16.52;;;13.38;;
51560;SDS011;37654;51.262;17.058;2023-08-20T02:59:19;16.48;;;12.68;;
51560;SDS011;37654;51.262;17.058;2023-08-20T03:01:44;25.30;;;12.45;;
51560;SDS011;37654;51.262;17.058;2023-08-20T03:04:10;16.10;;;12.10;;
51560;SDS011;37654;51.262;17.058;2023-08-20T03:06:35;16.67;;;12.23;;
51560;SDS011;37654;51.262;17.058;2023-08-20T03:09:00;16.83;;;12.10;;
51560;SDS011;37654;51.262;17.058;2023-08-20T03:11:26;16.50;;;12.17;;
51560;SDS011;37654;51.262;17.058;2023-08-20T03:13:51;15.83;;;11.93;;
51560;SDS011;37654;51.262;17.058;2023-08-20T03:16:16;16.40;;;12.03;;
51560;SDS011;37654;51.262;17.058;2023-08-20T03:18:41;16.60;;;12.73;;
51560;SDS011;37654;51.262;17.058;2023-08-20T03:21:07;17.43;;;12.93;;
51560;SDS011;37654;51.262;17.058;2023-08-20T03:23:32;16.90;;;12.50;;
51560;SDS011;37654;51.262;17.058;2023-08-20T03:25:58;17.20;;;12.53;;
51560;SDS011;37654;51.262;17.058;2023-08-20T03:28:24;22.88;;;13.48;;
51560;SDS011;37654;51.262;17.058;2023-08-20T03:30:49;17.27;;;12.60;;
51560;SDS011;37654;51.262;17.058;2023-08-20T03:33:14;12.80;;;11.03;;
51560;SDS011;37654;51.262;17.058;2023-08-20T03:35:42;16.95;;;12.38;;
51560;SDS011;37654;51.262;17.058;2023-08-20T03:38:07;16.20;;;12.70;;
51560;SDS011;37654;51.262;17.058;2023-08-20T03:40:32;15.30;;;12.07;;
51560;SDS011;37654;51.262;17.058;2023-08-20T03:42:58;15.33;;;12.57;;
51560;SDS011;37654;51.262;17.058;2023-08-20T03:45:23;19.00;;;13.17;;
51560;SDS011;37654;51.262;17.058;2023-08-20T03:47:48;14.80;;;12.20;;
51560;SDS011;37654;51.262;17.058;2023-08-20T03:50:14;15.13;;;12.20;;
51560;SDS011;37654;51.262;17.058;2023-08-20T03:52:39;14.00;;;11.75;;
51560;SDS011;37654;51.262;17.058;2023-08-20T03:55:05;14.35;;;12.18;;
51560;SDS011;37654;51.262;17.058;2023-08-20T03:57:30;16.38;;;12.13;;
51560;SDS011;37654;51.262;17.058;2023-08-20T03:59:55;17.43;;;13.53;;
51560;SDS011;37654;51.262;17.058;2023-08-20T04:02:21;16.15;;;12.65;;
51560;SDS011;37654;51.262;17.058;2023-08-20T04:04:46;16.75;;;13.25;;
51560;SDS011;37654;51.262;17.058;2023-08-20T04:07:12;20.33;;;14.20;;
51560;SDS011;37654;51.262;17.058;2023-08-20T04:09:37;18.57;;;13.83;;
51560;SDS011;37654;51.262;17.058;2023-08-20T04:12:03;19.42;;;14.63;;
51560;SDS011;37654;51.262;17.058;2023-08-20T04:14:29;22.83;;;14.05;;
51560;SDS011;37654;51.262;17.058;2023-08-20T04:16:54;17.37;;;13.83;;
51560;SDS011;37654;51.262;17.058;2023-08-20T04:19:19;16.43;;;13.00;;
51560;SDS011;37654;51.262;17.058;2023-08-20T04:21:45;17.00;;;13.20;;
51560;SDS011;37654;51.262;17.058;2023-08-20T04:24:10;18.20;;;13.63;;
51560;SDS011;37654;51.262;17.058;2023-08-20T04:26:35;21.30;;;12.00;;
51560;SDS011;37654;51.262;17.058;2023-08-20T04:29:01;17.10;;;14.03;;
51560;SDS011;37654;51.262;17.058;2023-08-20T04:31:26;15.23;;;13.13;;
51560;SDS011;37654;51.262;17.058;2023-08-20T04:33:52;19.23;;;13.93;;
51560;SDS011;37654;51.262;17.058;2023-08-20T04:36:17;16.70;;;13.17;;
51560;SDS011;37654;51.262;17.058;2023-08-20T04:38:42;19.30;;;13.27;;
51560;SDS011;37654;51.262;17.058;2023-08-20T04:41:07;19.60;;;13.38;;
51560;SDS011;37654;51.262;17.058;2023-08-20T04:43:33;24.67;;;13.55;;
51560;SDS011;37654;51.262;17.058;2023-08-20T04:45:58;18.33;;;13.47;;
51560;SDS011;37654;51.262;17.058;2023-08-20T04:48:24;16.97;;;13.37;;
51560;SDS011;37654;51.262;17.058;2023-08-20T04:50:49;19.20;;;12.57;;
51560;SDS011;37654;51.262;17.058;2023-08-20T04:53:14;19.10;;;13.48;;
51560;SDS011;37654;51.262;17.058;2023-08-20T04:55:39;20.97;;;12.83;;
51560;SDS011;37654;51.262;17.058;2023-08-20T04:58:05;16.80;;;13.73;;
51560;SDS011;37654;51.262;17.058;2023-08-20T05:00:30;18.83;;;14.17;;
51560;SDS011;37654;51.262;17.058;2023-08-20T05:02:55;17.20;;;13.07;;
51560;SDS011;37654;51.262;17.058;2023-08-20T05:05:21;19.55;;;13.75;;
51560;SDS011;37654;51.262;17.058;2023-08-20T05:07:46;16.67;;;13.80;;
51560;SDS011;37654;51.262;17.058;2023-08-20T05:10:11;15.70;;;12.23;;
51560;SDS011;37654;51.262;17.058;2023-08-20T05:12:37;15.37;;;11.83;;
51560;SDS011;37654;51.262;17.058;2023-08-20T05:15:02;15.43;;;12.70;;
51560;SDS011;37654;51.262;17.058;2023-08-20T05:17:28;16.05;;;12.35;;
51560;SDS011;37654;51.262;17.058;2023-08-20T05:19:53;17.52;;;12.38;;
51560;SDS011;37654;51.262;17.058;2023-08-20T05:22:18;17.57;;;12.73;;
51560;SDS011;37654;51.262;17.058;2023-08-20T05:24:43;16.57;;;12.83;;
51560;SDS011;37654;51.262;17.058;2023-08-20T05:27:15;16.93;;;13.53;;
51560;SDS011;37654;51.262;17.058;2023-08-20T05:29:42;15.88;;;12.45;;
51560;SDS011;37654;51.262;17.058;2023-08-20T05:32:07;17.40;;;12.17;;
51560;SDS011;37654;51.262;17.058;2023-08-20T05:34:33;19.10;;;12.65;;
51560;SDS011;37654;51.262;17.058;2023-08-20T05:36:58;18.17;;;13.35;;
51560;SDS011;37654;51.262;17.058;2023-08-20T05:39:23;19.70;;;13.77;;
51560;SDS011;37654;51.262;17.058;2023-08-20T05:41:51;17.08;;;13.98;;
51560;SDS011;37654;51.262;17.058;2023-08-20T05:44:16;20.40;;;14.43;;
51560;SDS011;37654;51.262;17.058;2023-08-20T05:46:42;18.17;;;15.35;;
51560;SDS011;37654;51.262;17.058;2023-08-20T05:49:08;20.92;;;15.73;;
51560;SDS011;37654;51.262;17.058;2023-08-20T05:51:33;20.63;;;15.80;;
51560;SDS011;37654;51.262;17.058;2023-08-20T05:53:58;20.93;;;15.40;;
51560;SDS011;37654;51.262;17.058;2023-08-20T05:56:23;25.87;;;17.33;;
51560;SDS011;37654;51.262;17.058;2023-08-20T05:58:49;23.33;;;17.30;;
51560;SDS011;37654;51.262;17.058;2023-08-20T06:01:15;26.88;;;17.27;;
51560;SDS011;37654;51.262;17.058;2023-08-20T06:03:40;24.00;;;16.90;;
51560;SDS011;37654;51.262;17.058;2023-08-20T06:06:05;23.23;;;18.13;;
51560;SDS011;37654;51.262;17.058;2023-08-20T06:08:30;23.27;;;17.37;;
51560;SDS011;37654;51.262;17.058;2023-08-20T06:10:56;29.57;;;19.40;;
51560;SDS011;37654;51.262;17.058;2023-08-20T06:13:21;24.75;;;17.85;;
51560;SDS011;37654;51.262;17.058;2023-08-20T06:15:46;26.33;;;18.27;;
51560;SDS011;37654;51.262;17.058;2023-08-20T06:18:12;28.00;;;21.23;;
51560;SDS011;37654;51.262;17.058;2023-08-20T06:20:37;26.90;;;20.52;;
51560;SDS011;37654;51.262;17.058;2023-08-20T06:23:03;21.77;;;16.67;;
51560;SDS011;37654;51.262;17.058;2023-08-20T06:25:28;25.27;;;17.27;;
51560;SDS011;37654;51.262;17.058;2023-08-20T06:27:53;24.33;;;17.23;;
51560;SDS011;37654;51.262;17.058;2023-08-20T06:30:19;19.17;;;15.63;;
51560;SDS011;37654;51.262;17.058;2023-08-20T06:32:44;16.63;;;12.77;;
51560;SDS011;37654;51.262;17.058;2023-08-20T06:35:09;15.70;;;12.47;;
51560;SDS011;37654;51.262;17.058;2023-08-20T06:37:35;24.48;;;14.98;;
51560;SDS011;37654;51.262;17.058;2023-08-20T06:40:01;19.77;;;14.38;;
51560;SDS011;37654;51.262;17.058;2023-08-20T06:42:26;15.57;;;11.63;;
51560;SDS011;37654;51.262;17.058;2023-08-20T06:44:51;15.83;;;11.13;;
51560;SDS011;37654;51.262;17.058;2023-08-20T06:47:17;14.57;;;10.40;;
51560;SDS011;37654;51.262;17.058;2023-08-20T06:49:42;14.77;;;10.33;;
51560;SDS011;37654;51.262;17.058;2023-08-20T06:52:07;15.27;;;10.88;;
51560;SDS011;37654;51.262;17.058;2023-08-20T06:54:33;12.60;;;10.83;;
51560;SDS011;37654;51.262;17.058;2023-08-20T06:56:58;13.37;;;9.80;;
51560;SDS011;37654;51.262;17.058;2023-08-20T06:59:23;14.90;;;11.10;;
51560;SDS011;37654;51.262;17.058;2023-08-20T07:01:49;13.00;;;9.77;;
51560;SDS011;37654;51.262;17.058;2023-08-20T07:04:15;14.65;;;9.48;;
51560;SDS011;37654;51.262;17.058;2023-08-20T07:06:40;11.37;;;9.53;;
51560;SDS011;37654;51.262;17.058;2023-08-20T07:09:06;13.40;;;9.75;;
51560;SDS011;37654;51.262;17.058;2023-08-20T07:11:32;9.60;;;8.40;;
51560;SDS011;37654;51.262;17.058;2023-08-20T07:13:57;12.03;;;8.23;;
51560;SDS011;37654;51.262;17.058;2023-08-20T07:16:22;15.60;;;10.83;;
51560;SDS011;37654;51.262;17.058;2023-08-20T07:18:51;11.05;;;8.85;;
51560;SDS011;37654;51.262;17.058;2023-08-20T07:21:18;11.98;;;9.48;;
51560;SDS011;37654;51.262;17.058;2023-08-20T07:23:43;16.00;;;11.47;;
51560;SDS011;37654;51.262;17.058;2023-08-20T07:26:10;12.02;;;10.70;;
51560;SDS011;37654;51.262;17.058;2023-08-20T07:28:37;11.60;;;9.07;;
51560;SDS011;37654;51.262;17.058;2023-08-20T07:31:20;8.43;;;7.28;;
51560;SDS011;37654;51.262;17.058;2023-08-20T07:33:46;9.93;;;7.83;;
51560;SDS011;37654;51.262;17.058;2023-08-20T07:36:12;10.90;;;8.35;;
51560;SDS011;37654;51.262;17.058;2023-08-20T07:38:38;12.07;;;8.00;;
51560;SDS011;37654;51.262;17.058;2023-08-20T07:41:06;9.85;;;7.55;;
51560;SDS011;37654;51.262;17.058;2023-08-20T07:43:31;12.00;;;7.22;;
51560;SDS011;37654;51.262;17.058;2023-08-20T07:45:57;9.03;;;6.70;;
51560;SDS011;37654;51.262;17.058;2023-08-20T07:48:22;8.17;;;7.37;;
51560;SDS011;37654;51.262;17.058;2023-08-20T07:50:47;8.60;;;6.03;;
51560;SDS011;37654;51.262;17.058;2023-08-20T07:53:13;9.10;;;6.33;;
51560;SDS011;37654;51.262;17.058;2023-08-20T07:55:38;7.43;;;6.63;;
51560;SDS011;37654;51.262;17.058;2023-08-20T07:58:03;9.30;;;7.00;;
51560;SDS011;37654;51.262;17.058;2023-08-20T08:00:29;8.20;;;7.33;;
51560;SDS011;37654;51.262;17.058;2023-08-20T08:02:54;10.50;;;6.90;;
51560;SDS011;37654;51.262;17.058;2023-08-20T08:05:19;9.90;;;7.23;;
51560;SDS011;37654;51.262;17.058;2023-08-20T08:07:45;12.30;;;7.23;;
51560;SDS011;37654;51.262;17.058;2023-08-20T08:10:10;9.57;;;6.80;;
51560;SDS011;37654;51.262;17.058;2023-08-20T08:12:35;7.40;;;6.10;;
51560;SDS011;37654;51.262;17.058;2023-08-20T08:15:01;7.27;;;5.90;;
51560;SDS011;37654;51.262;17.058;2023-08-20T08:17:27;6.70;;;6.00;;
51560;SDS011;37654;51.262;17.058;2023-08-20T08:19:52;8.60;;;5.73;;
51560;SDS011;37654;51.262;17.058;2023-08-20T08:22:19;6.57;;;5.90;;
51560;SDS011;37654;51.262;17.058;2023-08-20T08:24:45;6.43;;;5.83;;
51560;SDS011;37654;51.262;17.058;2023-08-20T08:27:10;9.40;;;5.67;;
51560;SDS011;37654;51.262;17.058;2023-08-20T08:29:35;6.67;;;5.73;;
51560;SDS011;37654;51.262;17.058;2023-08-20T08:32:01;9.67;;;6.17;;
51560;SDS011;37654;51.262;17.058;2023-08-20T08:34:26;6.40;;;5.87;;
51560;SDS011;37654;51.262;17.058;2023-08-20T08:36:51;6.57;;;5.63;;
51560;SDS011;37654;51.262;17.058;2023-08-20T08:39:17;6.00;;;5.47;;
51560;SDS011;37654;51.262;17.058;2023-08-20T08:41:42;6.03;;;5.43;;
51560;SDS011;37654;51.262;17.058;2023-08-20T08:44:08;6.10;;;5.60;;
51560;SDS011;37654;51.262;17.058;2023-08-20T08:46:35;5.00;;;4.60;;
51560;SDS011;37654;51.262;17.058;2023-08-20T08:49:00;7.78;;;5.45;;
51560;SDS011;37654;51.262;17.058;2023-08-20T08:51:26;6.43;;;4.85;;
51560;SDS011;37654;51.262;17.058;2023-08-20T08:53:51;6.40;;;4.93;;
51560;SDS011;37654;51.262;17.058;2023-08-20T08:56:17;10.07;;;5.47;;
51560;SDS011;37654;51.262;17.058;2023-08-20T08:58:42;7.27;;;4.93;;
51560;SDS011;37654;51.262;17.058;2023-08-20T09:01:07;6.10;;;4.80;;
51560;SDS011;37654;51.262;17.058;2023-08-20T09:03:33;5.97;;;5.17;;
51560;SDS011;37654;51.262;17.058;2023-08-20T09:05:59;6.77;;;5.30;;
51560;SDS011;37654;51.262;17.058;2023-08-20T09:08:30;5.35;;;4.80;;
51560;SDS011;37654;51.262;17.058;2023-08-20T09:10:56;7.93;;;5.05;;
51560;SDS011;37654;51.262;17.058;2023-08-20T09:13:43;5.82;;;5.20;;
51560;SDS011;37654;51.262;17.058;2023-08-20T09:16:09;8.13;;;5.45;;
51560;SDS011;37654;51.262;17.058;2023-08-20T09:18:41;8.18;;;5.80;;
51560;SDS011;37654;51.262;17.058;2023-08-20T09:21:09;9.45;;;6.03;;
51560;SDS011;37654;51.262;17.058;2023-08-20T09:23:34;13.48;;;7.00;;
51560;SDS011;37654;51.262;17.058;2023-08-20T09:26:03;9.93;;;6.80;;
51560;SDS011;37654;51.262;17.058;2023-08-20T09:28:29;9.65;;;6.75;;
51560;SDS011;37654;51.262;17.058;2023-08-20T09:30:58;7.07;;;5.93;;
51560;SDS011;37654;51.262;17.058;2023-08-20T09:33:26;7.55;;;6.55;;
51560;SDS011;37654;51.262;17.058;2023-08-20T09:35:51;8.23;;;7.37;;
51560;SDS011;37654;51.262;17.058;2023-08-20T09:38:19;7.80;;;6.75;;
51560;SDS011;37654;51.262;17.058;2023-08-20T09:40:49;6.82;;;6.05;;
51560;SDS011;37654;51.262;17.058;2023-08-20T09:43:18;7.53;;;6.47;;
51560;SDS011;37654;51.262;17.058;2023-08-20T09:45:44;7.18;;;6.05;;
51560;SDS011;37654;51.262;17.058;2023-08-20T09:48:11;7.18;;;5.38;;
51560;SDS011;37654;51.262;17.058;2023-08-20T09:50:38;7.50;;;5.93;;
51560;SDS011;37654;51.262;17.058;2023-08-20T09:56:49;7.93;;;6.35;;
51560;SDS011;37654;51.262;17.058;2023-08-20T09:58:54;7.82;;;6.15;;
51560;SDS011;37654;51.262;17.058;2023-08-20T10:01:19;6.57;;;5.97;;
51560;SDS011;37654;51.262;17.058;2023-08-20T10:03:45;6.20;;;5.70;;
51560;SDS011;37654;51.262;17.058;2023-08-20T10:06:11;9.00;;;6.47;;
51560;SDS011;37654;51.262;17.058;2023-08-20T10:08:36;10.17;;;6.40;;
51560;SDS011;37654;51.262;17.058;2023-08-20T10:11:02;8.05;;;7.32;;
51560;SDS011;37654;51.262;17.058;2023-08-20T10:13:27;8.53;;;7.77;;
51560;SDS011;37654;51.262;17.058;2023-08-20T10:15:53;8.65;;;7.88;;
51560;SDS011;37654;51.262;17.058;2023-08-20T10:18:20;9.02;;;8.23;;
51560;SDS011;37654;51.262;17.058;2023-08-20T10:20:45;9.50;;;8.70;;
51560;SDS011;37654;51.262;17.058;2023-08-20T10:23:11;10.23;;;9.30;;
51560;SDS011;37654;51.262;17.058;2023-08-20T10:25:40;10.65;;;9.85;;
51560;SDS011;37654;51.262;17.058;2023-08-20T10:28:13;11.18;;;10.43;;
51560;SDS011;37654;51.262;17.058;2023-08-20T10:33:25;12.25;;;11.45;;
51560;SDS011;37654;51.262;17.058;2023-08-20T10:35:51;14.60;;;13.60;;
51560;SDS011;37654;51.262;17.058;2023-08-20T10:38:18;17.77;;;16.63;;
51560;SDS011;37654;51.262;17.058;2023-08-20T10:40:56;17.50;;;16.40;;
51560;SDS011;37654;51.262;17.058;2023-08-20T10:43:28;19.98;;;18.77;;
51560;SDS011;37654;51.262;17.058;2023-08-20T10:48:38;25.85;;;24.25;;
51560;SDS011;37654;51.262;17.058;2023-08-20T10:51:16;28.27;;;26.52;;
51560;SDS011;37654;51.262;17.058;2023-08-20T10:53:43;23.08;;;21.60;;
51560;SDS011;37654;51.262;17.058;2023-08-20T10:56:13;23.60;;;22.25;;
51560;SDS011;37654;51.262;17.058;2023-08-20T10:58:46;20.35;;;19.27;;
51560;SDS011;37654;51.262;17.058;2023-08-20T11:01:24;18.48;;;17.48;;
51560;SDS011;37654;51.262;17.058;2023-08-20T11:03:50;18.50;;;17.25;;
51560;SDS011;37654;51.262;17.058;2023-08-20T11:06:16;14.88;;;13.98;;
51560;SDS011;37654;51.262;17.058;2023-08-20T11:08:41;11.57;;;10.38;;
51560;SDS011;37654;51.262;17.058;2023-08-20T11:11:08;9.20;;;8.32;;
51560;SDS011;37654;51.262;17.058;2023-08-20T11:13:34;7.70;;;7.00;;
51560;SDS011;37654;51.262;17.058;2023-08-20T11:16:01;7.07;;;6.45;;
51560;SDS011;37654;51.262;17.058;2023-08-20T11:18:27;6.95;;;6.35;;
51560;SDS011;37654;51.262;17.058;2023-08-20T11:20:53;7.73;;;5.40;;
51560;SDS011;37654;51.262;17.058;2023-08-20T11:23:18;10.25;;;5.55;;
51560;SDS011;37654;51.262;17.058;2023-08-20T11:25:44;8.47;;;5.40;;
51560;SDS011;37654;51.262;17.058;2023-08-20T11:28:09;6.17;;;5.67;;
51560;SDS011;37654;51.262;17.058;2023-08-20T11:30:34;7.40;;;5.93;;
51560;SDS011;37654;51.262;17.058;2023-08-20T11:33:00;9.07;;;6.15;;
51560;SDS011;37654;51.262;17.058;2023-08-20T11:35:25;9.73;;;6.00;;
51560;SDS011;37654;51.262;17.058;2023-08-20T11:37:51;7.07;;;5.67;;
51560;SDS011;37654;51.262;17.058;2023-08-20T11:40:17;6.50;;;5.60;;
51560;SDS011;37654;51.262;17.058;2023-08-20T11:42:42;9.00;;;5.93;;
51560;SDS011;37654;51.262;17.058;2023-08-20T11:45:09;9.52;;;6.53;;
51560;SDS011;37654;51.262;17.058;2023-08-20T11:47:38;6.90;;;6.20;;
51560;SDS011;37654;51.262;17.058;2023-08-20T11:50:07;7.13;;;6.43;;
51560;SDS011;37654;51.262;17.058;2023-08-20T11:52:33;7.60;;;6.50;;
51560;SDS011;37654;51.262;17.058;2023-08-20T11:54:59;9.07;;;6.55;;
51560;SDS011;37654;51.262;17.058;2023-08-20T11:57:28;7.53;;;6.43;;
51560;SDS011;37654;51.262;17.058;2023-08-20T11:59:53;7.15;;;6.55;;
51560;SDS011;37654;51.262;17.058;2023-08-20T12:02:27;6.80;;;6.10;;
51560;SDS011;37654;51.262;17.058;2023-08-20T12:04:55;6.95;;;5.95;;
51560;SDS011;37654;51.262;17.058;2023-08-20T12:07:20;6.93;;;6.20;;
51560;SDS011;37654;51.262;17.058;2023-08-20T12:09:50;7.32;;;6.57;;
51560;SDS011;37654;51.262;17.058;2023-08-20T12:12:15;7.82;;;6.32;;
51560;SDS011;37654;51.262;17.058;2023-08-20T12:14:44;7.70;;;5.55;;
51560;SDS011;37654;51.262;17.058;2023-08-20T12:17:09;12.27;;;6.00;;
51560;SDS011;37654;51.262;17.058;2023-08-20T12:19:34;6.77;;;5.70;;
51560;SDS011;37654;51.262;17.058;2023-08-20T12:21:59;6.53;;;5.90;;
51560;SDS011;37654;51.262;17.058;2023-08-20T12:24:25;10.93;;;6.43;;
51560;SDS011;37654;51.262;17.058;2023-08-20T12:26:51;7.88;;;6.40;;
51560;SDS011;37654;51.262;17.058;2023-08-20T12:29:16;5.65;;;5.13;;
51560;SDS011;37654;51.262;17.058;2023-08-20T12:31:42;6.43;;;5.13;;
51560;SDS011;37654;51.262;17.058;2023-08-20T12:34:07;5.90;;;5.30;;
51560;SDS011;37654;51.262;17.058;2023-08-20T12:36:33;5.95;;;5.40;;
51560;SDS011;37654;51.262;17.058;2023-08-20T12:38:58;6.47;;;5.40;;
51560;SDS011;37654;51.262;17.058;2023-08-20T12:41:24;7.60;;;5.80;;
51560;SDS011;37654;51.262;17.058;2023-08-20T12:43:49;6.35;;;5.38;;
51560;SDS011;37654;51.262;17.058;2023-08-20T12:46:15;9.33;;;5.33;;
51560;SDS011;37654;51.262;17.058;2023-08-20T12:48:41;6.65;;;4.82;;
51560;SDS011;37654;51.262;17.058;2023-08-20T12:51:06;5.43;;;4.93;;
51560;SDS011;37654;51.262;17.058;2023-08-20T12:53:32;7.22;;;5.80;;
51560;SDS011;37654;51.262;17.058;2023-08-20T12:55:57;5.77;;;4.97;;
51560;SDS011;37654;51.262;17.058;2023-08-20T12:58:23;7.80;;;5.87;;
51560;SDS011;37654;51.262;17.058;2023-08-20T13:00:49;6.47;;;5.22;;
51560;SDS011;37654;51.262;17.058;2023-08-20T13:03:15;5.75;;;5.25;;
51560;SDS011;37654;51.262;17.058;2023-08-20T13:05:41;9.98;;;5.68;;
51560;SDS011;37654;51.262;17.058;2023-08-20T13:08:06;5.90;;;5.28;;
51560;SDS011;37654;51.262;17.058;2023-08-20T13:10:32;8.02;;;5.28;;
51560;SDS011;37654;51.262;17.058;2023-08-20T13:12:59;5.50;;;4.70;;
51560;SDS011;37654;51.262;17.058;2023-08-20T13:15:25;5.15;;;4.63;;
51560;SDS011;37654;51.262;17.058;2023-08-20T13:17:51;8.75;;;4.80;;
51560;SDS011;37654;51.262;17.058;2023-08-20T13:20:16;6.53;;;4.25;;
51560;SDS011;37654;51.262;17.058;2023-08-20T13:22:48;9.68;;;4.95;;
51560;SDS011;37654;51.262;17.058;2023-08-20T13:25:14;5.90;;;4.32;;
51560;SDS011;37654;51.262;17.058;2023-08-20T13:27:40;5.30;;;4.80;;
51560;SDS011;37654;51.262;17.058;2023-08-20T13:30:05;7.83;;;4.63;;
51560;SDS011;37654;51.262;17.058;2023-08-20T13:32:30;7.22;;;5.35;;
51560;SDS011;37654;51.262;17.058;2023-08-20T13:34:56;8.90;;;5.27;;
51560;SDS011;37654;51.262;17.058;2023-08-20T13:37:21;8.37;;;4.80;;
51560;SDS011;37654;51.262;17.058;2023-08-20T13:39:47;10.63;;;4.57;;
51560;SDS011;37654;51.262;17.058;2023-08-20T13:42:12;5.73;;;4.97;;
51560;SDS011;37654;51.262;17.058;2023-08-20T13:44:37;7.63;;;5.33;;
51560;SDS011;37654;51.262;17.058;2023-08-20T13:47:02;6.07;;;5.47;;
51560;SDS011;37654;51.262;17.058;2023-08-20T13:49:28;7.43;;;4.90;;
51560;SDS011;37654;51.262;17.058;2023-08-20T13:51:54;7.30;;;5.22;;
51560;SDS011;37654;51.262;17.058;2023-08-20T13:54:19;5.77;;;5.03;;
51560;SDS011;37654;51.262;17.058;2023-08-20T13:56:44;8.63;;;5.37;;
51560;SDS011;37654;51.262;17.058;2023-08-20T13:59:10;5.32;;;4.78;;
51560;SDS011;37654;51.262;17.058;2023-08-20T14:01:35;6.88;;;5.20;;
51560;SDS011;37654;51.262;17.058;2023-08-20T14:04:01;4.55;;;4.15;;
51560;SDS011;37654;51.262;17.058;2023-08-20T14:06:26;5.32;;;4.00;;
51560;SDS011;37654;51.262;17.058;2023-08-20T14:08:52;6.70;;;4.30;;
51560;SDS011;37654;51.262;17.058;2023-08-20T14:11:17;5.17;;;4.40;;
51560;SDS011;37654;51.262;17.058;2023-08-20T14:13:42;5.33;;;4.50;;
51560;SDS011;37654;51.262;17.058;2023-08-20T14:16:08;8.82;;;5.63;;
51560;SDS011;37654;51.262;17.058;2023-08-20T14:18:33;6.90;;;5.10;;
51560;SDS011;37654;51.262;17.058;2023-08-20T14:20:58;11.33;;;4.93;;
51560;SDS011;37654;51.262;17.058;2023-08-20T14:23:24;7.93;;;4.93;;
51560;SDS011;37654;51.262;17.058;2023-08-20T14:25:49;6.33;;;4.00;;
51560;SDS011;37654;51.262;17.058;2023-08-20T14:28:14;6.70;;;4.33;;
51560;SDS011;37654;51.262;17.058;2023-08-20T14:30:40;4.23;;;3.73;;